createdAt,value
2023-01-29T00:01:57.571Z,9.63
2023-01-29T00:04:25.382Z,10.68
2023-01-29T00:06:54.596Z,9.05
2023-01-29T00:09:22.568Z,8.15
2023-01-29T00:11:50.283Z,9.18
2023-01-29T00:14:18.785Z,9.15
2023-01-29T00:16:46.495Z,9.88
2023-01-29T00:19:14.578Z,8.23
2023-01-29T00:21:42.312Z,9.20
2023-01-29T00:24:11.411Z,9.63
2023-01-29T00:26:40.161Z,12.65
2023-01-29T00:29:07.949Z,10.20
2023-01-29T00:31:36.045Z,11.43
2023-01-29T00:34:03.792Z,9.77
2023-01-29T00:36:31.520Z,8.80
2023-01-29T00:39:00.750Z,9.50
2023-01-29T00:41:48.098Z,10.13
2023-01-29T00:44:33.448Z,9.38
2023-01-29T00:47:01.085Z,9.60
2023-01-29T00:49:30.253Z,10.50
2023-01-29T00:52:15.568Z,10.95
2023-01-29T00:54:44.520Z,9.02
2023-01-29T00:57:13.557Z,10.63
2023-01-29T00:59:41.223Z,9.38
2023-01-29T01:02:26.213Z,10.40
2023-01-29T01:04:53.864Z,7.97
2023-01-29T01:07:21.995Z,9.88
2023-01-29T01:10:07.544Z,8.93
2023-01-29T01:12:36.583Z,9.27
2023-01-29T01:15:04.404Z,8.75
2023-01-29T01:17:32.141Z,9.38
2023-01-29T01:19:59.815Z,12.57
2023-01-29T01:22:27.473Z,10.75
2023-01-29T01:24:55.346Z,8.65
2023-01-29T01:27:23.754Z,10.43
2023-01-29T01:29:52.947Z,9.27
2023-01-29T01:32:20.637Z,11.38
2023-01-29T01:34:49.215Z,9.57
2023-01-29T01:37:16.896Z,9.63
2023-01-29T01:39:50.595Z,8.80
2023-01-29T01:42:18.383Z,10.45
2023-01-29T01:44:54.863Z,10.32
2023-01-29T01:47:25.650Z,11.32
2023-01-29T01:49:54.421Z,10.73
2023-01-29T01:52:22.345Z,10.02
2023-01-29T01:54:52.755Z,11.35
2023-01-29T01:57:25.009Z,11.98
2023-01-29T01:59:57.641Z,11.40
2023-01-29T02:02:43.218Z,11.55
2023-01-29T02:05:30.187Z,10.65
2023-01-29T02:08:16.352Z,12.27
2023-01-29T02:10:44.953Z,9.82
2023-01-29T02:13:16.228Z,11.77
2023-01-29T02:15:48.850Z,10.25
2023-01-29T02:18:18.009Z,11.82
2023-01-29T02:20:49.647Z,11.35
2023-01-29T02:23:27.245Z,11.50
2023-01-29T02:26:05.610Z,13.50
2023-01-29T02:28:39.027Z,12.63
2023-01-29T02:31:09.720Z,12.02
2023-01-29T02:33:42.858Z,9.63
2023-01-29T02:36:15.429Z,11.60
2023-01-29T02:38:46.866Z,11.30
2023-01-29T02:41:16.261Z,9.25
2023-01-29T02:43:47.654Z,12.68
2023-01-29T02:46:19.400Z,11.43
2023-01-29T02:48:50.693Z,10.27
2023-01-29T02:51:21.214Z,11.85
2023-01-29T02:53:53.692Z,11.65
2023-01-29T02:56:23.428Z,12.85
2023-01-29T02:58:55.874Z,12.68
2023-01-29T03:01:30.362Z,14.95
2023-01-29T03:04:00.113Z,13.88
2023-01-29T03:06:30.501Z,9.80
2023-01-29T03:09:00.260Z,12.02
2023-01-29T03:11:29.276Z,12.68
2023-01-29T03:13:59.893Z,14.75
2023-01-29T03:16:32.315Z,13.38
2023-01-29T03:19:02.708Z,12.45
2023-01-29T03:21:55.394Z,15.00
2023-01-29T03:24:45.420Z,12.52
2023-01-29T03:27:33.078Z,13.88
2023-01-29T03:30:20.622Z,11.73
2023-01-29T03:32:49.686Z,13.93
2023-01-29T03:35:21.107Z,14.75
2023-01-29T03:37:49.655Z,11.70
2023-01-29T03:40:17.801Z,13.05
2023-01-29T03:42:51.493Z,12.88
2023-01-29T03:45:23.037Z,14.57
2023-01-29T03:47:52.723Z,16.02
2023-01-29T03:50:26.324Z,13.05
2023-01-29T03:52:57.679Z,16.50
2023-01-29T03:55:30.293Z,12.98
2023-01-29T03:58:00.648Z,13.15
2023-01-29T04:00:31.187Z,12.23
2023-01-29T04:03:02.548Z,13.50
2023-01-29T04:05:32.672Z,13.27
2023-01-29T04:08:03.179Z,12.32
2023-01-29T04:10:30.868Z,14.43
2023-01-29T04:13:01.005Z,11.95
2023-01-29T04:15:32.082Z,13.02
2023-01-29T04:17:59.786Z,13.27
2023-01-29T04:20:27.852Z,11.68
2023-01-29T04:22:58.511Z,11.63
2023-01-29T04:25:29.101Z,13.02
2023-01-29T04:27:59.757Z,13.88
2023-01-29T04:30:31.804Z,13.50
2023-01-29T04:33:04.953Z,10.38
2023-01-29T04:35:33.626Z,12.15
2023-01-29T04:38:07.711Z,12.13
2023-01-29T04:40:40.560Z,11.30
2023-01-29T04:43:10.020Z,9.70
2023-01-29T04:45:40.643Z,13.23
2023-01-29T04:48:14.036Z,12.32
2023-01-29T04:50:45.572Z,11.40
2023-01-29T04:53:16.474Z,12.18
2023-01-29T04:55:46.701Z,13.52
2023-01-29T04:58:16.864Z,12.05
2023-01-29T05:00:45.572Z,11.43
2023-01-29T05:03:15.285Z,11.43
2023-01-29T05:05:43.907Z,12.15
2023-01-29T05:08:13.580Z,11.85
2023-01-29T05:10:42.521Z,13.70
2023-01-29T05:13:12.082Z,12.75
2023-01-29T05:15:40.867Z,12.43
2023-01-29T05:18:10.239Z,12.00
2023-01-29T05:20:40.003Z,11.80
2023-01-29T05:23:10.758Z,14.65
2023-01-29T05:25:41.184Z,13.63
2023-01-29T05:28:16.394Z,12.10
2023-01-29T05:30:46.576Z,12.10
2023-01-29T05:33:15.779Z,10.63
2023-01-29T05:35:45.059Z,12.30
2023-01-29T05:38:13.992Z,11.10
2023-01-29T05:40:41.874Z,12.77
2023-01-29T05:43:15.227Z,12.32
2023-01-29T05:45:42.868Z,13.23
2023-01-29T05:48:10.623Z,13.13
2023-01-29T05:50:38.343Z,13.77
2023-01-29T05:53:07.755Z,13.95
2023-01-29T05:55:35.513Z,13.95
2023-01-29T05:58:05.749Z,13.70
2023-01-29T06:00:33.861Z,13.48
2023-01-29T06:03:01.805Z,11.10
2023-01-29T06:05:29.510Z,13.07
2023-01-29T06:07:57.146Z,13.05
2023-01-29T06:10:26.167Z,12.32
2023-01-29T06:12:53.842Z,12.73
2023-01-29T06:15:22.080Z,13.32
2023-01-29T06:17:49.707Z,13.13
2023-01-29T06:20:17.742Z,12.60
2023-01-29T06:22:45.720Z,12.77
2023-01-29T06:25:13.423Z,12.10
2023-01-29T06:27:42.588Z,12.80
2023-01-29T06:30:11.035Z,14.13
2023-01-29T06:32:38.746Z,12.00
2023-01-29T06:35:06.900Z,9.85
2023-01-29T06:37:34.671Z,12.25
2023-01-29T06:40:02.502Z,11.43
2023-01-29T06:42:30.163Z,12.45
2023-01-29T06:45:04.553Z,12.85
2023-01-29T06:47:32.245Z,14.63
2023-01-29T06:49:59.894Z,12.48
2023-01-29T06:52:29.093Z,11.55
2023-01-29T06:54:57.629Z,14.20
2023-01-29T06:57:25.460Z,13.82
2023-01-29T06:59:53.122Z,13.70
2023-01-29T07:02:22.407Z,13.80
2023-01-29T07:04:50.099Z,13.85
2023-01-29T07:07:18.529Z,12.88
2023-01-29T07:09:46.198Z,12.00
2023-01-29T07:12:13.877Z,12.40
2023-01-29T07:14:41.589Z,12.75
2023-01-29T07:17:09.296Z,14.63
2023-01-29T07:19:38.317Z,14.55
2023-01-29T07:22:06.079Z,16.05
2023-01-29T07:24:33.950Z,14.70
2023-01-29T07:27:01.725Z,13.90
2023-01-29T07:29:29.498Z,14.27
2023-01-29T07:31:57.194Z,13.27
2023-01-29T07:34:26.471Z,13.38
2023-01-29T07:36:57.597Z,15.20
2023-01-29T07:39:25.273Z,15.05
2023-01-29T07:41:54.013Z,15.57
2023-01-29T07:44:23.103Z,14.93
2023-01-29T07:46:50.772Z,14.50
2023-01-29T07:49:18.476Z,15.43
2023-01-29T07:51:46.223Z,15.30
2023-01-29T07:54:15.507Z,15.57
2023-01-29T07:56:43.157Z,15.10
2023-01-29T07:59:10.938Z,15.77
2023-01-29T08:01:38.615Z,15.80
2023-01-29T08:04:06.320Z,14.50
2023-01-29T08:06:33.995Z,12.70
2023-01-29T08:09:02.291Z,14.68
2023-01-29T08:11:31.278Z,13.32
2023-01-29T08:13:59.078Z,16.10
2023-01-29T08:16:26.833Z,15.73
2023-01-29T08:18:55.842Z,16.23
2023-01-29T08:21:23.489Z,17.40
2023-01-29T08:23:51.134Z,15.60
2023-01-29T08:26:19.023Z,16.88
2023-01-29T08:28:48.493Z,16.90
2023-01-29T08:31:16.545Z,16.65
2023-01-29T08:33:44.403Z,16.70
2023-01-29T08:36:12.070Z,17.88
2023-01-29T08:38:39.759Z,17.55
2023-01-29T08:41:07.711Z,16.35
2023-01-29T08:43:36.939Z,17.60
2023-01-29T08:46:06.361Z,19.48
2023-01-29T08:48:34.123Z,17.17
2023-01-29T08:51:02.517Z,17.52
2023-01-29T08:53:30.320Z,18.77
2023-01-29T08:55:58.241Z,17.98
2023-01-29T08:58:25.980Z,17.48
2023-01-29T09:00:53.696Z,17.50
2023-01-29T09:03:22.739Z,16.58
2023-01-29T09:05:50.460Z,17.98
2023-01-29T09:08:18.119Z,15.35
2023-01-29T09:10:45.799Z,16.75
2023-01-29T09:13:13.451Z,15.40
2023-01-29T09:15:41.173Z,14.73
2023-01-29T09:18:09.015Z,15.60
2023-01-29T09:20:39.092Z,16.17
2023-01-29T09:23:07.191Z,15.20
2023-01-29T09:25:35.021Z,14.73
2023-01-29T09:28:02.843Z,15.73
2023-01-29T09:30:30.498Z,14.20
2023-01-29T09:32:58.141Z,14.02
2023-01-29T09:35:27.959Z,13.52
2023-01-29T09:37:57.010Z,14.48
2023-01-29T09:40:28.397Z,12.90
2023-01-29T09:42:58.925Z,12.75
2023-01-29T09:45:28.117Z,12.65
2023-01-29T09:47:59.042Z,12.55
2023-01-29T09:50:29.431Z,14.68
2023-01-29T09:52:59.946Z,12.55
2023-01-29T09:55:30.819Z,12.80
2023-01-29T09:57:59.486Z,14.05
2023-01-29T10:00:29.474Z,12.50
2023-01-29T10:03:08.773Z,12.63
2023-01-29T10:05:44.386Z,12.95
2023-01-29T10:08:20.601Z,13.65
2023-01-29T10:10:50.606Z,13.60
2023-01-29T10:13:22.390Z,16.55
2023-01-29T10:15:57.824Z,13.38
2023-01-29T10:18:43.091Z,13.13
2023-01-29T10:21:20.680Z,14.25
2023-01-29T10:23:51.698Z,13.55
2023-01-29T10:26:22.557Z,13.93
2023-01-29T10:28:51.486Z,14.50
2023-01-29T10:31:23.718Z,12.57
2023-01-29T10:34:02.341Z,13.90
2023-01-29T10:36:34.450Z,15.05
2023-01-29T10:39:03.594Z,13.27
2023-01-29T10:41:44.946Z,13.60
2023-01-29T10:44:21.147Z,14.82
2023-01-29T10:46:56.638Z,13.32
2023-01-29T10:52:09.551Z,13.25
2023-01-29T10:54:51.152Z,12.43
2023-01-29T10:57:24.305Z,12.25
2023-01-29T10:59:59.333Z,13.77
2023-01-29T11:02:29.719Z,14.50
2023-01-29T11:04:57.434Z,13.40
2023-01-29T11:07:27.796Z,11.95
2023-01-29T11:10:01.774Z,12.63
2023-01-29T11:12:32.146Z,12.85
2023-01-29T11:15:01.494Z,13.27
2023-01-29T11:17:29.198Z,13.60
2023-01-29T11:19:57.209Z,12.70
2023-01-29T11:22:25.449Z,13.02
2023-01-29T11:27:48.679Z,11.20
2023-01-29T11:30:17.696Z,10.43
2023-01-29T11:32:48.326Z,11.30
2023-01-29T11:35:22.672Z,9.07
2023-01-29T11:37:50.405Z,10.57
2023-01-29T11:40:34.393Z,10.25
2023-01-29T11:43:13.674Z,10.20
2023-01-29T11:45:41.447Z,10.88
2023-01-29T11:48:17.883Z,12.35
2023-01-29T11:50:45.941Z,11.65
2023-01-29T11:53:24.725Z,11.80
2023-01-29T11:55:53.095Z,11.07
2023-01-29T11:58:24.004Z,12.02
2023-01-29T12:00:52.542Z,11.70
2023-01-29T12:03:25.000Z,9.80
2023-01-29T12:05:57.873Z,10.95
2023-01-29T12:08:28.149Z,11.25
2023-01-29T12:11:08.408Z,11.80
2023-01-29T12:13:39.078Z,10.27
2023-01-29T12:16:11.710Z,11.75
2023-01-29T12:18:40.950Z,10.43
2023-01-29T12:21:13.483Z,11.18
2023-01-29T12:23:44.631Z,9.48
2023-01-29T12:26:15.991Z,10.48
2023-01-29T12:28:49.964Z,10.27
2023-01-29T12:31:24.567Z,11.45
2023-01-29T12:33:54.286Z,12.47
2023-01-29T12:36:24.603Z,10.00
2023-01-29T12:38:52.296Z,11.63
2023-01-29T12:41:29.604Z,12.35
2023-01-29T12:43:59.390Z,10.55
2023-01-29T12:46:29.228Z,10.05
2023-01-29T12:49:00.103Z,10.63
2023-01-29T12:51:31.117Z,10.75
2023-01-29T12:54:01.232Z,10.68
2023-01-29T12:56:30.936Z,10.80
2023-01-29T12:59:01.574Z,10.32
2023-01-29T13:01:32.393Z,11.10
2023-01-29T13:04:01.673Z,9.45
2023-01-29T13:06:30.717Z,10.57
2023-01-29T13:08:59.909Z,11.23
2023-01-29T13:11:31.047Z,11.35
2023-01-29T13:14:00.966Z,10.75
2023-01-29T13:16:31.372Z,9.68
2023-01-29T13:19:00.614Z,10.07
2023-01-29T13:21:30.398Z,10.50
2023-01-29T13:24:01.365Z,9.07
2023-01-29T13:26:29.477Z,9.85
2023-01-29T13:28:57.191Z,10.93
2023-01-29T13:31:28.536Z,10.27
2023-01-29T13:34:03.856Z,10.75
2023-01-29T13:36:32.063Z,10.90
2023-01-29T13:39:02.832Z,11.00
2023-01-29T13:41:38.106Z,9.98
2023-01-29T13:44:11.296Z,8.48
2023-01-29T13:46:42.793Z,10.80
2023-01-29T13:49:27.606Z,8.95
2023-01-29T13:51:55.615Z,10.25
2023-01-29T13:54:25.735Z,8.80
2023-01-29T13:57:00.749Z,10.63
2023-01-29T13:59:47.005Z,10.07
2023-01-29T14:02:23.408Z,9.88
2023-01-29T14:04:51.243Z,10.00
2023-01-29T14:07:37.682Z,9.73
2023-01-29T14:10:14.479Z,10.13
2023-01-29T14:12:46.169Z,9.38
2023-01-29T14:15:39.410Z,10.80
2023-01-29T14:18:15.208Z,9.18
2023-01-29T14:20:51.485Z,9.73
2023-01-29T14:23:25.053Z,9.98
2023-01-29T14:25:53.932Z,10.82
2023-01-29T14:28:23.743Z,10.65
2023-01-29T14:30:52.346Z,10.07
2023-01-29T14:33:29.050Z,10.43
2023-01-29T14:35:58.058Z,10.48
2023-01-29T14:38:28.173Z,9.57
2023-01-29T14:41:04.538Z,10.00
2023-01-29T14:43:32.195Z,10.30
2023-01-29T14:46:25.693Z,10.45
2023-01-29T14:48:54.801Z,9.80
2023-01-29T14:51:25.270Z,10.48
2023-01-29T14:53:56.121Z,10.02
2023-01-29T14:56:27.494Z,9.35
2023-01-29T14:58:57.985Z,10.00
2023-01-29T15:01:27.480Z,11.38
2023-01-29T15:04:00.980Z,12.00
2023-01-29T15:06:33.346Z,11.38
2023-01-29T15:09:05.772Z,9.77
2023-01-29T15:11:36.965Z,11.48
2023-01-29T15:14:24.983Z,10.43
2023-01-29T15:16:57.507Z,10.55
2023-01-29T15:19:29.605Z,10.93
2023-01-29T15:22:03.626Z,10.05
2023-01-29T15:24:31.346Z,9.73
2023-01-29T15:26:59.092Z,9.80
2023-01-29T15:29:28.267Z,10.20
2023-01-29T15:31:56.632Z,10.18
2023-01-29T15:34:24.590Z,9.52
2023-01-29T15:36:53.848Z,11.65
2023-01-29T15:39:22.783Z,11.45
2023-01-29T15:41:51.764Z,10.40
2023-01-29T15:44:20.610Z,8.55
2023-01-29T15:46:51.035Z,10.93
2023-01-29T15:49:20.929Z,9.93
2023-01-29T15:51:49.534Z,10.38
2023-01-29T15:54:19.164Z,9.88
2023-01-29T15:56:48.174Z,11.30
2023-01-29T15:59:18.483Z,10.73
2023-01-29T16:01:46.352Z,10.20
2023-01-29T16:04:16.222Z,10.38
2023-01-29T16:06:44.886Z,9.05
2023-01-29T16:09:17.002Z,10.40
2023-01-29T16:11:46.683Z,11.02
2023-01-29T16:14:15.594Z,9.35
2023-01-29T16:16:45.245Z,10.43
2023-01-29T16:19:22.325Z,10.85
2023-01-29T16:21:53.044Z,10.68
2023-01-29T16:24:22.543Z,10.10
2023-01-29T16:26:52.464Z,10.55
2023-01-29T16:29:25.773Z,10.57
2023-01-29T16:32:00.601Z,9.80
2023-01-29T16:34:30.334Z,10.82
2023-01-29T16:36:58.611Z,11.82
2023-01-29T16:39:27.858Z,11.32
2023-01-29T16:42:10.859Z,10.32
2023-01-29T16:44:41.161Z,11.07
2023-01-29T16:47:12.871Z,10.90
2023-01-29T16:49:45.089Z,9.80
2023-01-29T16:52:17.556Z,9.77
2023-01-29T16:54:45.411Z,12.07
2023-01-29T16:57:14.951Z,11.27
2023-01-29T16:59:44.254Z,11.60
2023-01-29T17:02:17.054Z,11.05
2023-01-29T17:04:46.961Z,10.30
2023-01-29T17:07:17.347Z,10.65
2023-01-29T17:09:45.118Z,11.43
2023-01-29T17:12:19.576Z,11.52
2023-01-29T17:14:55.547Z,12.43
2023-01-29T17:17:23.452Z,10.60
2023-01-29T17:19:51.388Z,11.05
2023-01-29T17:22:19.525Z,11.63
2023-01-29T17:24:51.410Z,11.20
2023-01-29T17:27:20.584Z,10.50
2023-01-29T17:29:48.541Z,10.77
2023-01-29T17:32:19.611Z,9.68
2023-01-29T17:34:47.673Z,11.18
2023-01-29T17:37:16.412Z,10.13
2023-01-29T17:39:45.470Z,10.95
2023-01-29T17:42:16.383Z,10.40
2023-01-29T17:44:44.127Z,11.27
2023-01-29T17:47:13.506Z,11.20
2023-01-29T17:49:42.970Z,10.98
2023-01-29T17:52:10.852Z,12.27
2023-01-29T17:54:38.613Z,10.65
2023-01-29T17:57:06.613Z,11.35
2023-01-29T17:59:34.678Z,10.95
2023-01-29T18:02:02.447Z,11.65
2023-01-29T18:04:30.111Z,11.88
2023-01-29T18:06:59.275Z,10.60
2023-01-29T18:09:28.046Z,9.98
2023-01-29T18:11:56.116Z,7.80
2023-01-29T18:14:24.572Z,10.55
2023-01-29T18:16:57.261Z,10.35
2023-01-29T18:19:27.414Z,9.98
2023-01-29T18:21:55.142Z,12.55
2023-01-29T18:24:26.674Z,11.63
2023-01-29T18:26:54.565Z,12.10
2023-01-29T18:29:22.296Z,10.50
2023-01-29T18:31:50.249Z,11.60
2023-01-29T18:34:20.591Z,11.45
2023-01-29T18:36:48.236Z,9.82
2023-01-29T18:39:16.052Z,12.57
2023-01-29T18:41:45.119Z,11.40
2023-01-29T18:44:13.056Z,11.80
2023-01-29T18:46:41.197Z,11.65
2023-01-29T18:49:08.896Z,11.60
2023-01-29T18:51:36.565Z,11.25
2023-01-29T18:54:05.063Z,12.35
2023-01-29T18:56:32.994Z,12.45
2023-01-29T18:59:02.102Z,12.50
2023-01-29T19:01:30.382Z,11.10
2023-01-29T19:04:00.302Z,11.98
2023-01-29T19:06:27.976Z,10.45
2023-01-29T19:08:55.894Z,12.35
2023-01-29T19:11:23.559Z,11.63
2023-01-29T19:13:51.286Z,13.02
2023-01-29T19:16:24.581Z,10.73
2023-01-29T19:18:53.489Z,13.10
2023-01-29T19:21:21.171Z,11.25
2023-01-29T19:23:51.611Z,10.60
2023-01-29T19:26:19.329Z,12.07
2023-01-29T19:28:47.028Z,11.48
2023-01-29T19:31:15.684Z,11.00
2023-01-29T19:33:44.843Z,12.48
2023-01-29T19:36:13.687Z,12.00
2023-01-29T19:38:44.692Z,12.95
2023-01-29T19:41:12.489Z,12.43
2023-01-29T19:43:41.984Z,11.65
2023-01-29T19:46:10.366Z,12.05
2023-01-29T19:48:38.096Z,11.90
2023-01-29T19:51:11.626Z,12.13
2023-01-29T19:53:40.880Z,10.68
2023-01-29T19:56:09.558Z,12.55
2023-01-29T19:58:37.467Z,13.65
2023-01-29T20:01:06.554Z,11.82
2023-01-29T20:03:34.427Z,12.90
2023-01-29T20:06:06.289Z,12.45
2023-01-29T20:08:35.735Z,11.77
2023-01-29T20:11:03.485Z,12.63
2023-01-29T20:13:31.199Z,11.25
2023-01-29T20:16:05.388Z,14.00
2023-01-29T20:18:33.461Z,11.63
2023-01-29T20:21:06.032Z,13.77
2023-01-29T20:23:38.171Z,12.35
2023-01-29T20:26:07.552Z,13.05
2023-01-29T20:28:36.893Z,12.77
2023-01-29T20:31:05.415Z,13.48
2023-01-29T20:33:33.680Z,13.75
2023-01-29T20:36:02.292Z,11.35
2023-01-29T20:38:31.853Z,13.45
2023-01-29T20:41:04.996Z,13.05
2023-01-29T20:43:32.826Z,12.98
2023-01-29T20:46:01.186Z,12.10
2023-01-29T20:48:29.060Z,14.77
2023-01-29T20:50:57.029Z,12.00
2023-01-29T20:53:24.689Z,12.63
2023-01-29T20:55:52.696Z,11.18
2023-01-29T20:58:22.092Z,12.90
2023-01-29T21:00:49.973Z,13.70
2023-01-29T21:03:17.729Z,11.40
2023-01-29T21:05:45.606Z,11.43
2023-01-29T21:08:13.376Z,13.82
2023-01-29T21:10:43.117Z,13.15
2023-01-29T21:13:11.505Z,13.02
2023-01-29T21:15:42.634Z,14.10
2023-01-29T21:18:10.339Z,12.82
2023-01-29T21:20:38.084Z,14.43
2023-01-29T21:23:07.209Z,12.63
2023-01-29T21:25:35.204Z,12.68
2023-01-29T21:28:04.379Z,12.85
2023-01-29T21:30:34.923Z,11.95
2023-01-29T21:33:04.306Z,11.98
2023-01-29T21:35:32.274Z,13.38
2023-01-29T21:38:00.149Z,11.93
2023-01-29T21:40:32.583Z,11.82
2023-01-29T21:43:11.603Z,12.80
2023-01-29T21:45:39.572Z,14.18
2023-01-29T21:48:09.231Z,13.70
2023-01-29T21:50:37.248Z,12.80
2023-01-29T21:53:04.974Z,13.40
2023-01-29T21:55:34.766Z,12.90
2023-01-29T21:58:02.415Z,14.05
2023-01-29T22:00:32.582Z,11.85
2023-01-29T22:03:00.385Z,10.70
2023-01-29T22:05:30.267Z,13.27
2023-01-29T22:07:58.056Z,13.10
2023-01-29T22:10:30.690Z,13.50
2023-01-29T22:13:00.424Z,14.07
2023-01-29T22:15:28.185Z,13.30
2023-01-29T22:17:55.873Z,13.50
2023-01-29T22:20:29.781Z,12.05
2023-01-29T22:23:00.523Z,13.43
2023-01-29T22:25:28.603Z,13.57
2023-01-29T22:27:56.509Z,13.40
2023-01-29T22:30:24.792Z,13.73
2023-01-29T22:32:52.460Z,14.93
2023-01-29T22:35:20.274Z,12.75
2023-01-29T22:37:48.013Z,13.07
2023-01-29T22:40:17.540Z,12.30
2023-01-29T22:43:10.265Z,11.80
2023-01-29T22:45:40.309Z,12.50
2023-01-29T22:48:08.264Z,13.25
2023-01-29T22:50:36.345Z,12.85
2023-01-29T22:53:04.072Z,12.77
2023-01-29T22:55:33.372Z,16.17
2023-01-29T22:58:01.308Z,13.77
2023-01-29T23:00:28.987Z,12.80
2023-01-29T23:02:56.726Z,13.30
2023-01-29T23:05:24.723Z,13.80
2023-01-29T23:07:52.408Z,13.88
2023-01-29T23:10:20.259Z,13.20
2023-01-29T23:12:49.323Z,13.60
2023-01-29T23:15:17.039Z,13.75
2023-01-29T23:17:45.236Z,14.25
2023-01-29T23:20:13.429Z,12.75
2023-01-29T23:22:41.110Z,12.90
2023-01-29T23:25:09.362Z,14.55
2023-01-29T23:27:36.070Z,12.57
2023-01-29T23:30:05.667Z,13.80
2023-01-29T23:32:33.875Z,11.57
2023-01-29T23:35:01.621Z,12.63
2023-01-29T23:37:30.075Z,14.93
2023-01-29T23:39:57.756Z,12.45
2023-01-29T23:42:25.526Z,14.80
2023-01-29T23:44:53.416Z,12.77
2023-01-29T23:47:22.465Z,12.05
2023-01-29T23:49:50.187Z,16.67
2023-01-29T23:52:17.997Z,12.20
2023-01-29T23:54:46.128Z,12.77
2023-01-29T23:57:15.469Z,12.57
2023-01-29T23:59:43.273Z,12.43
